Main page
METAR-TAF:

METAR-TAF

Airports :

Nakhon Phanom Airport

Nakhon Phanom, Thailand

latitude: 17-23-02N, longitude: 104-38-35E, elevation: 179 m

Current weather observation

The report was made 1 hour and 11 minutes ago, at 03:00 UTC
Wind 6 kt from the East, varying between North/Northeast and Southeast
Temperature 27°C
Humidity 42%
Pressure 1016 hPa
Visibility 10 km or more
no clouds below 1500 m and no cumulonimbus

METAR: VTUW 250300Z 10006KT 030V130 CAVOK 27/13 Q1016 NOSIG

Time: 11:11 (04:11 UTC)

Forecast

The report was made 5 hours and 11 minutes ago, at 23:00 UTC
Forecast valid from 25 at 00 UTC to 25 at 24 UTC
Wind 5 kt from the East/Southeast
Visibility: 5000 m
mist
Becoming
from 25 at 04 UTC to 25 at 06 UTC
Visibility: 9000 m
Becoming
from 25 at 21 UTC to 25 at 23 UTC
Visibility: 5000 m
mist

TAF: VTUW 242300Z 2500/2524 12005KT 5000 BR NSC BECMG 2504/2506 9000 NSW BECMG 2521/2523 5000 BR

Weather observations and forecasts of more than 4000 airports (METAR and TAF reports).

The available stations are represented by yellow and red dots on the map.

Hover mouse over dot to see the name of the station.

Then click to see weather observations and forecasts.

To change the map : click on the green buttons with a black cross to zoom in, on the green button with a dash to zoom out, or on the green arrows for adjacent maps.


METAR-TAF: